sensor_id;sensor_type;location;lat;lon;timestamp;temperature;humidity
48535;DHT22;34323;52.022;5.686;2022-12-18T00:02:14;3.80;99.90
48535;DHT22;34323;52.022;5.686;2022-12-18T00:04:39;3.60;99.90
48535;DHT22;34323;52.022;5.686;2022-12-18T00:07:05;3.50;99.90
48535;DHT22;34323;52.022;5.686;2022-12-18T00:09:30;3.60;99.90
48535;DHT22;34323;52.022;5.686;2022-12-18T00:11:56;3.70;99.90
48535;DHT22;34323;52.022;5.686;2022-12-18T00:14:21;3.70;99.90
48535;DHT22;34323;52.022;5.686;2022-12-18T00:16:47;3.90;99.90
48535;DHT22;34323;52.022;5.686;2022-12-18T00:19:14;3.80;99.90
48535;DHT22;34323;52.022;5.686;2022-12-18T00:21:40;3.60;99.90
48535;DHT22;34323;52.022;5.686;2022-12-18T00:24:06;3.40;99.90
48535;DHT22;34323;52.022;5.686;2022-12-18T00:26:33;3.20;99.90
48535;DHT22;34323;52.022;5.686;2022-12-18T00:29:26;3.30;99.90
48535;DHT22;34323;52.022;5.686;2022-12-18T00:31:51;3.20;99.90
48535;DHT22;34323;52.022;5.686;2022-12-18T00:34:17;3.00;99.90
48535;DHT22;34323;52.022;5.686;2022-12-18T00:36:42;2.80;99.90
48535;DHT22;34323;52.022;5.686;2022-12-18T00:39:08;2.70;99.90
48535;DHT22;34323;52.022;5.686;2022-12-18T00:41:35;2.60;99.90
48535;DHT22;34323;52.022;5.686;2022-12-18T00:44:19;2.60;99.90
48535;DHT22;34323;52.022;5.686;2022-12-18T00:46:46;2.40;99.90
48535;DHT22;34323;52.022;5.686;2022-12-18T00:49:12;2.20;99.90
48535;DHT22;34323;52.022;5.686;2022-12-18T00:51:38;2.10;99.90
48535;DHT22;34323;52.022;5.686;2022-12-18T00:54:03;2.20;99.90
48535;DHT22;34323;52.022;5.686;2022-12-18T00:56:29;2.20;99.90
48535;DHT22;34323;52.022;5.686;2022-12-18T00:58:55;2.30;99.90
48535;DHT22;34323;52.022;5.686;2022-12-18T01:01:20;2.40;99.90
48535;DHT22;34323;52.022;5.686;2022-12-18T01:03:46;2.30;99.90
48535;DHT22;34323;52.022;5.686;2022-12-18T01:06:13;2.00;99.90
48535;DHT22;34323;52.022;5.686;2022-12-18T01:08:39;2.00;99.90
48535;DHT22;34323;52.022;5.686;2022-12-18T01:11:10;1.90;99.90
48535;DHT22;34323;52.022;5.686;2022-12-18T01:13:37;1.90;99.90
48535;DHT22;34323;52.022;5.686;2022-12-18T01:16:03;1.70;99.90
48535;DHT22;34323;52.022;5.686;2022-12-18T01:18:29;1.70;99.90
48535;DHT22;34323;52.022;5.686;2022-12-18T01:20:54;1.80;99.90
48535;DHT22;34323;52.022;5.686;2022-12-18T01:23:20;1.70;99.90
48535;DHT22;34323;52.022;5.686;2022-12-18T01:25:45;1.70;99.90
48535;DHT22;34323;52.022;5.686;2022-12-18T01:28:11;1.70;99.90
48535;DHT22;34323;52.022;5.686;2022-12-18T01:30:37;1.60;99.90
48535;DHT22;34323;52.022;5.686;2022-12-18T01:33:04;1.50;99.90
48535;DHT22;34323;52.022;5.686;2022-12-18T01:35:30;1.40;99.90
48535;DHT22;34323;52.022;5.686;2022-12-18T01:37:56;1.60;99.90
48535;DHT22;34323;52.022;5.686;2022-12-18T01:40:22;1.50;99.90
48535;DHT22;34323;52.022;5.686;2022-12-18T01:42:54;1.50;99.90
48535;DHT22;34323;52.022;5.686;2022-12-18T01:45:26;1.50;99.90
48535;DHT22;34323;52.022;5.686;2022-12-18T01:48:03;1.60;99.90
48535;DHT22;34323;52.022;5.686;2022-12-18T01:50:41;1.60;99.90
48535;DHT22;34323;52.022;5.686;2022-12-18T01:53:14;1.70;99.90
48535;DHT22;34323;52.022;5.686;2022-12-18T01:55:46;1.70;99.90
48535;DHT22;34323;52.022;5.686;2022-12-18T01:58:13;1.70;99.90
48535;DHT22;34323;52.022;5.686;2022-12-18T02:00:39;1.80;99.90
48535;DHT22;34323;52.022;5.686;2022-12-18T02:03:05;1.80;99.90
48535;DHT22;34323;52.022;5.686;2022-12-18T02:08:39;1.40;99.90
48535;DHT22;34323;52.022;5.686;2022-12-18T02:14:04;1.30;99.90
48535;DHT22;34323;52.022;5.686;2022-12-18T02:16:52;1.10;99.90
48535;DHT22;34323;52.022;5.686;2022-12-18T02:22:27;1.00;99.90
48535;DHT22;34323;52.022;5.686;2022-12-18T02:27:29;1.20;99.90
48535;DHT22;34323;52.022;5.686;2022-12-18T02:29:57;1.10;99.90
48535;DHT22;34323;52.022;5.686;2022-12-18T02:32:27;1.20;99.90
48535;DHT22;34323;52.022;5.686;2022-12-18T02:34:56;1.00;99.90
48535;DHT22;34323;52.022;5.686;2022-12-18T02:37:23;1.00;99.90
48535;DHT22;34323;52.022;5.686;2022-12-18T02:39:51;1.10;99.90
48535;DHT22;34323;52.022;5.686;2022-12-18T02:42:18;1.20;99.90
48535;DHT22;34323;52.022;5.686;2022-12-18T02:44:47;1.10;99.90
48535;DHT22;34323;52.022;5.686;2022-12-18T02:47:14;1.00;99.90
48535;DHT22;34323;52.022;5.686;2022-12-18T02:57:34;1.00;99.90
48535;DHT22;34323;52.022;5.686;2022-12-18T03:00:14;1.00;99.90
48535;DHT22;34323;52.022;5.686;2022-12-18T03:03:05;1.00;99.90
48535;DHT22;34323;52.022;5.686;2022-12-18T03:05:39;1.00;99.90
48535;DHT22;34323;52.022;5.686;2022-12-18T03:08:22;1.10;99.90
48535;DHT22;34323;52.022;5.686;2022-12-18T03:10:54;1.00;99.90
48535;DHT22;34323;52.022;5.686;2022-12-18T03:13:27;1.00;99.90
48535;DHT22;34323;52.022;5.686;2022-12-18T03:15:55;1.00;99.90
48535;DHT22;34323;52.022;5.686;2022-12-18T03:18:46;0.80;99.90
48535;DHT22;34323;52.022;5.686;2022-12-18T03:21:12;0.60;99.90
48535;DHT22;34323;52.022;5.686;2022-12-18T03:23:45;0.60;99.90
48535;DHT22;34323;52.022;5.686;2022-12-18T03:26:12;0.90;99.90
48535;DHT22;34323;52.022;5.686;2022-12-18T03:28:44;1.00;99.90
48535;DHT22;34323;52.022;5.686;2022-12-18T03:31:12;0.90;99.90
48535;DHT22;34323;52.022;5.686;2022-12-18T03:33:47;1.10;99.90
48535;DHT22;34323;52.022;5.686;2022-12-18T03:36:16;0.80;99.90
48535;DHT22;34323;52.022;5.686;2022-12-18T03:38:41;0.80;99.90
48535;DHT22;34323;52.022;5.686;2022-12-18T03:41:28;0.80;99.90
48535;DHT22;34323;52.022;5.686;2022-12-18T03:44:12;0.70;99.90
48535;DHT22;34323;52.022;5.686;2022-12-18T03:46:58;0.60;99.90
48535;DHT22;34323;52.022;5.686;2022-12-18T03:54:42;0.80;99.90
48535;DHT22;34323;52.022;5.686;2022-12-18T03:57:17;0.80;99.90
48535;DHT22;34323;52.022;5.686;2022-12-18T03:59:45;0.90;99.90
48535;DHT22;34323;52.022;5.686;2022-12-18T04:02:14;1.00;99.90
48535;DHT22;34323;52.022;5.686;2022-12-18T04:04:42;1.00;99.90
48535;DHT22;34323;52.022;5.686;2022-12-18T04:07:08;1.00;99.90
48535;DHT22;34323;52.022;5.686;2022-12-18T04:09:35;0.90;99.90
48535;DHT22;34323;52.022;5.686;2022-12-18T04:12:01;0.80;99.90
48535;DHT22;34323;52.022;5.686;2022-12-18T04:14:26;0.70;99.90
48535;DHT22;34323;52.022;5.686;2022-12-18T04:16:52;0.50;99.90
48535;DHT22;34323;52.022;5.686;2022-12-18T04:19:17;0.70;99.90
48535;DHT22;34323;52.022;5.686;2022-12-18T04:21:43;0.70;99.90
48535;DHT22;34323;52.022;5.686;2022-12-18T04:24:09;0.70;99.90
48535;DHT22;34323;52.022;5.686;2022-12-18T04:26:34;0.70;99.90
48535;DHT22;34323;52.022;5.686;2022-12-18T04:29:00;0.70;99.90
48535;DHT22;34323;52.022;5.686;2022-12-18T04:31:25;0.80;99.90
48535;DHT22;34323;52.022;5.686;2022-12-18T04:33:51;0.80;99.90
48535;DHT22;34323;52.022;5.686;2022-12-18T04:36:17;0.70;99.90
48535;DHT22;34323;52.022;5.686;2022-12-18T04:38:42;0.70;99.90
48535;DHT22;34323;52.022;5.686;2022-12-18T04:41:08;0.80;99.90
48535;DHT22;34323;52.022;5.686;2022-12-18T04:43:33;0.70;99.90
48535;DHT22;34323;52.022;5.686;2022-12-18T04:46:04;0.70;99.90
48535;DHT22;34323;52.022;5.686;2022-12-18T04:48:29;0.70;99.90
48535;DHT22;34323;52.022;5.686;2022-12-18T04:50:55;0.60;99.90
48535;DHT22;34323;52.022;5.686;2022-12-18T04:53:21;0.50;99.90
48535;DHT22;34323;52.022;5.686;2022-12-18T04:55:46;0.40;99.90
48535;DHT22;34323;52.022;5.686;2022-12-18T04:58:12;0.40;99.90
48535;DHT22;34323;52.022;5.686;2022-12-18T05:00:37;0.20;99.90
48535;DHT22;34323;52.022;5.686;2022-12-18T05:03:03;0.20;99.90
48535;DHT22;34323;52.022;5.686;2022-12-18T05:05:28;0.30;99.90
48535;DHT22;34323;52.022;5.686;2022-12-18T05:07:54;0.30;99.90
48535;DHT22;34323;52.022;5.686;2022-12-18T05:10:19;0.20;99.90
48535;DHT22;34323;52.022;5.686;2022-12-18T05:12:45;0.20;99.90
48535;DHT22;34323;52.022;5.686;2022-12-18T05:15:27;-0.10;99.90
48535;DHT22;34323;52.022;5.686;2022-12-18T05:17:53;-0.10;99.90
48535;DHT22;34323;52.022;5.686;2022-12-18T05:20:19;-0.20;99.90
48535;DHT22;34323;52.022;5.686;2022-12-18T05:22:44;-0.20;99.90
48535;DHT22;34323;52.022;5.686;2022-12-18T05:25:10;-0.20;99.90
48535;DHT22;34323;52.022;5.686;2022-12-18T05:27:36;0.00;99.90
48535;DHT22;34323;52.022;5.686;2022-12-18T05:30:01;0.00;99.90
48535;DHT22;34323;52.022;5.686;2022-12-18T05:32:27;-0.10;99.90
48535;DHT22;34323;52.022;5.686;2022-12-18T05:34:52;-0.10;99.90
48535;DHT22;34323;52.022;5.686;2022-12-18T05:37:18;-0.20;99.90
48535;DHT22;34323;52.022;5.686;2022-12-18T05:39:44;-0.10;99.90
48535;DHT22;34323;52.022;5.686;2022-12-18T05:42:09;-0.30;99.90
48535;DHT22;34323;52.022;5.686;2022-12-18T05:44:35;-0.10;99.90
48535;DHT22;34323;52.022;5.686;2022-12-18T05:47:00;0.10;99.90
48535;DHT22;34323;52.022;5.686;2022-12-18T05:49:26;0.20;99.90
48535;DHT22;34323;52.022;5.686;2022-12-18T05:51:52;0.30;99.90
48535;DHT22;34323;52.022;5.686;2022-12-18T05:54:17;0.30;99.90
48535;DHT22;34323;52.022;5.686;2022-12-18T05:56:43;0.30;99.90
48535;DHT22;34323;52.022;5.686;2022-12-18T05:59:08;0.10;99.90
48535;DHT22;34323;52.022;5.686;2022-12-18T06:01:35;0.00;99.90
48535;DHT22;34323;52.022;5.686;2022-12-18T06:04:00;0.10;99.90
48535;DHT22;34323;52.022;5.686;2022-12-18T06:06:27;0.30;99.90
48535;DHT22;34323;52.022;5.686;2022-12-18T06:08:54;0.20;99.90
48535;DHT22;34323;52.022;5.686;2022-12-18T06:11:22;0.20;99.90
48535;DHT22;34323;52.022;5.686;2022-12-18T06:13:52;0.10;99.90
48535;DHT22;34323;52.022;5.686;2022-12-18T06:16:18;0.10;99.90
48535;DHT22;34323;52.022;5.686;2022-12-18T06:18:44;0.10;99.90
48535;DHT22;34323;52.022;5.686;2022-12-18T06:21:10;0.10;99.90
48535;DHT22;34323;52.022;5.686;2022-12-18T06:23:35;0.10;99.90
48535;DHT22;34323;52.022;5.686;2022-12-18T06:26:09;0.10;99.90
48535;DHT22;34323;52.022;5.686;2022-12-18T06:28:35;0.20;99.90
48535;DHT22;34323;52.022;5.686;2022-12-18T06:31:02;0.20;99.90
48535;DHT22;34323;52.022;5.686;2022-12-18T06:33:28;0.10;99.90
48535;DHT22;34323;52.022;5.686;2022-12-18T06:35:54;0.10;99.90
48535;DHT22;34323;52.022;5.686;2022-12-18T06:38:24;0.10;99.90
48535;DHT22;34323;52.022;5.686;2022-12-18T06:40:50;0.20;99.90
48535;DHT22;34323;52.022;5.686;2022-12-18T06:43:15;0.20;99.90
48535;DHT22;34323;52.022;5.686;2022-12-18T06:45:41;0.20;99.90
48535;DHT22;34323;52.022;5.686;2022-12-18T06:48:07;0.30;99.90
48535;DHT22;34323;52.022;5.686;2022-12-18T06:50:33;0.20;99.90
48535;DHT22;34323;52.022;5.686;2022-12-18T06:52:59;0.20;99.90
48535;DHT22;34323;52.022;5.686;2022-12-18T06:55:25;0.10;99.90
48535;DHT22;34323;52.022;5.686;2022-12-18T06:57:50;0.10;99.90
48535;DHT22;34323;52.022;5.686;2022-12-18T07:00:16;0.20;99.90
48535;DHT22;34323;52.022;5.686;2022-12-18T07:02:42;0.30;99.90
48535;DHT22;34323;52.022;5.686;2022-12-18T07:05:07;0.40;99.90
48535;DHT22;34323;52.022;5.686;2022-12-18T07:07:34;0.50;99.90
48535;DHT22;34323;52.022;5.686;2022-12-18T07:10:00;0.50;99.90
48535;DHT22;34323;52.022;5.686;2022-12-18T07:12:27;0.20;99.90
48535;DHT22;34323;52.022;5.686;2022-12-18T07:14:52;0.00;99.90
48535;DHT22;34323;52.022;5.686;2022-12-18T07:17:18;0.10;99.90
48535;DHT22;34323;52.022;5.686;2022-12-18T07:19:43;0.10;99.90
48535;DHT22;34323;52.022;5.686;2022-12-18T07:22:09;0.30;99.90
48535;DHT22;34323;52.022;5.686;2022-12-18T07:24:34;0.40;99.90
48535;DHT22;34323;52.022;5.686;2022-12-18T07:27:00;0.30;99.90
48535;DHT22;34323;52.022;5.686;2022-12-18T07:29:26;0.20;99.90
48535;DHT22;34323;52.022;5.686;2022-12-18T07:31:51;-0.20;99.90
48535;DHT22;34323;52.022;5.686;2022-12-18T07:34:17;-0.20;99.90
48535;DHT22;34323;52.022;5.686;2022-12-18T07:36:42;-0.10;99.90
48535;DHT22;34323;52.022;5.686;2022-12-18T07:39:09;0.00;99.90
48535;DHT22;34323;52.022;5.686;2022-12-18T07:41:35;0.00;99.90
48535;DHT22;34323;52.022;5.686;2022-12-18T07:44:01;0.10;99.90
48535;DHT22;34323;52.022;5.686;2022-12-18T07:46:26;0.20;99.90
48535;DHT22;34323;52.022;5.686;2022-12-18T07:48:52;0.20;99.90
48535;DHT22;34323;52.022;5.686;2022-12-18T07:51:18;0.20;99.90
48535;DHT22;34323;52.022;5.686;2022-12-18T07:53:44;0.10;99.90
48535;DHT22;34323;52.022;5.686;2022-12-18T07:56:11;0.20;99.90
48535;DHT22;34323;52.022;5.686;2022-12-18T07:58:37;0.20;99.90
48535;DHT22;34323;52.022;5.686;2022-12-18T08:01:10;0.30;99.90
48535;DHT22;34323;52.022;5.686;2022-12-18T08:03:37;0.20;99.90
48535;DHT22;34323;52.022;5.686;2022-12-18T08:06:05;0.10;99.90
48535;DHT22;34323;52.022;5.686;2022-12-18T08:08:32;0.10;99.90
48535;DHT22;34323;52.022;5.686;2022-12-18T08:10:58;0.20;99.90
48535;DHT22;34323;52.022;5.686;2022-12-18T08:13:24;0.40;99.90
48535;DHT22;34323;52.022;5.686;2022-12-18T08:16:00;0.50;99.90
48535;DHT22;34323;52.022;5.686;2022-12-18T08:18:27;0.40;99.90
48535;DHT22;34323;52.022;5.686;2022-12-18T08:20:55;0.50;99.90
48535;DHT22;34323;52.022;5.686;2022-12-18T08:23:21;0.50;99.90
48535;DHT22;34323;52.022;5.686;2022-12-18T08:25:46;0.50;99.90
48535;DHT22;34323;52.022;5.686;2022-12-18T08:28:12;0.30;99.90
48535;DHT22;34323;52.022;5.686;2022-12-18T08:30:37;0.20;99.90
48535;DHT22;34323;52.022;5.686;2022-12-18T08:33:03;0.40;99.90
48535;DHT22;34323;52.022;5.686;2022-12-18T08:35:29;0.60;99.90
48535;DHT22;34323;52.022;5.686;2022-12-18T08:37:54;0.50;99.90
48535;DHT22;34323;52.022;5.686;2022-12-18T08:40:20;0.40;99.90
48535;DHT22;34323;52.022;5.686;2022-12-18T08:42:45;0.70;99.90
48535;DHT22;34323;52.022;5.686;2022-12-18T08:45:30;0.80;99.90
48535;DHT22;34323;52.022;5.686;2022-12-18T08:47:55;0.90;99.90
48535;DHT22;34323;52.022;5.686;2022-12-18T08:50:21;1.00;99.90
48535;DHT22;34323;52.022;5.686;2022-12-18T08:52:47;1.00;99.90
48535;DHT22;34323;52.022;5.686;2022-12-18T08:55:12;1.20;99.90
48535;DHT22;34323;52.022;5.686;2022-12-18T08:57:38;1.20;99.90
48535;DHT22;34323;52.022;5.686;2022-12-18T09:00:04;1.30;99.90
48535;DHT22;34323;52.022;5.686;2022-12-18T09:02:30;1.40;99.90
48535;DHT22;34323;52.022;5.686;2022-12-18T09:04:55;1.50;99.90
48535;DHT22;34323;52.022;5.686;2022-12-18T09:07:21;1.80;99.90
48535;DHT22;34323;52.022;5.686;2022-12-18T09:09:46;1.80;99.90
48535;DHT22;34323;52.022;5.686;2022-12-18T09:12:12;1.50;99.90
48535;DHT22;34323;52.022;5.686;2022-12-18T09:14:37;1.50;99.90
48535;DHT22;34323;52.022;5.686;2022-12-18T09:17:03;1.80;99.90
48535;DHT22;34323;52.022;5.686;2022-12-18T09:19:29;2.00;99.90
48535;DHT22;34323;52.022;5.686;2022-12-18T09:21:54;1.90;99.90
48535;DHT22;34323;52.022;5.686;2022-12-18T09:24:23;1.80;99.90
48535;DHT22;34323;52.022;5.686;2022-12-18T09:26:48;1.60;99.90
48535;DHT22;34323;52.022;5.686;2022-12-18T09:29:14;1.70;99.90
48535;DHT22;34323;52.022;5.686;2022-12-18T09:31:40;1.80;99.90
48535;DHT22;34323;52.022;5.686;2022-12-18T09:34:06;2.00;99.90
48535;DHT22;34323;52.022;5.686;2022-12-18T09:36:31;2.10;99.90
48535;DHT22;34323;52.022;5.686;2022-12-18T09:38:57;2.20;99.90
48535;DHT22;34323;52.022;5.686;2022-12-18T09:43:55;2.40;99.90
48535;DHT22;34323;52.022;5.686;2022-12-18T09:46:58;2.40;99.90
48535;DHT22;34323;52.022;5.686;2022-12-18T09:49:28;2.60;99.90
48535;DHT22;34323;52.022;5.686;2022-12-18T09:54:41;2.50;99.90
48535;DHT22;34323;52.022;5.686;2022-12-18T09:57:20;2.50;99.90
48535;DHT22;34323;52.022;5.686;2022-12-18T09:59:51;2.70;99.90
48535;DHT22;34323;52.022;5.686;2022-12-18T10:02:20;2.90;99.90
48535;DHT22;34323;52.022;5.686;2022-12-18T10:07:36;3.00;99.90
48535;DHT22;34323;52.022;5.686;2022-12-18T10:10:13;3.00;99.90
48535;DHT22;34323;52.022;5.686;2022-12-18T10:15:39;2.90;99.90
48535;DHT22;34323;52.022;5.686;2022-12-18T10:21:13;2.70;99.90
48535;DHT22;34323;52.022;5.686;2022-12-18T10:24:08;2.90;99.90
48535;DHT22;34323;52.022;5.686;2022-12-18T10:26:36;2.90;99.90
48535;DHT22;34323;52.022;5.686;2022-12-18T10:29:09;2.70;99.90
48535;DHT22;34323;52.022;5.686;2022-12-18T10:31:36;2.70;99.90
48535;DHT22;34323;52.022;5.686;2022-12-18T10:34:01;2.80;99.90
48535;DHT22;34323;52.022;5.686;2022-12-18T10:36:27;3.10;99.90
48535;DHT22;34323;52.022;5.686;2022-12-18T10:38:53;3.40;99.90
48535;DHT22;34323;52.022;5.686;2022-12-18T10:43:44;3.00;99.90
48535;DHT22;34323;52.022;5.686;2022-12-18T10:51:06;3.30;99.90
48535;DHT22;34323;52.022;5.686;2022-12-18T10:53:34;3.20;99.90
48535;DHT22;34323;52.022;5.686;2022-12-18T10:56:03;3.30;99.90
48535;DHT22;34323;52.022;5.686;2022-12-18T10:58:30;3.50;99.90
48535;DHT22;34323;52.022;5.686;2022-12-18T11:01:10;3.20;99.90
48535;DHT22;34323;52.022;5.686;2022-12-18T11:06:14;3.20;99.90
48535;DHT22;34323;52.022;5.686;2022-12-18T11:08:42;3.30;99.90
48535;DHT22;34323;52.022;5.686;2022-12-18T11:11:20;3.60;99.90
48535;DHT22;34323;52.022;5.686;2022-12-18T11:14:05;4.00;99.90
48535;DHT22;34323;52.022;5.686;2022-12-18T11:16:43;4.10;99.90
48535;DHT22;34323;52.022;5.686;2022-12-18T11:19:14;4.00;99.90
48535;DHT22;34323;52.022;5.686;2022-12-18T11:21:44;3.60;99.90
48535;DHT22;34323;52.022;5.686;2022-12-18T11:24:29;3.70;99.90
48535;DHT22;34323;52.022;5.686;2022-12-18T11:26:58;3.60;99.90
48535;DHT22;34323;52.022;5.686;2022-12-18T11:29:35;3.70;99.90
48535;DHT22;34323;52.022;5.686;2022-12-18T11:32:27;3.70;99.90
48535;DHT22;34323;52.022;5.686;2022-12-18T11:35:00;3.50;99.90
48535;DHT22;34323;52.022;5.686;2022-12-18T11:37:27;3.60;99.90
48535;DHT22;34323;52.022;5.686;2022-12-18T11:40:05;3.40;99.90
48535;DHT22;34323;52.022;5.686;2022-12-18T11:42:52;3.50;99.90
48535;DHT22;34323;52.022;5.686;2022-12-18T11:45:36;3.70;99.90
48535;DHT22;34323;52.022;5.686;2022-12-18T11:50:54;4.40;99.90
48535;DHT22;34323;52.022;5.686;2022-12-18T11:53:21;4.50;99.90
48535;DHT22;34323;52.022;5.686;2022-12-18T11:58:37;4.30;99.90
48535;DHT22;34323;52.022;5.686;2022-12-18T12:01:48;4.30;99.90
48535;DHT22;34323;52.022;5.686;2022-12-18T12:04:23;4.10;99.90
48535;DHT22;34323;52.022;5.686;2022-12-18T12:19:01;3.90;99.90
48535;DHT22;34323;52.022;5.686;2022-12-18T12:21:42;3.60;99.90
48535;DHT22;34323;52.022;5.686;2022-12-18T12:24:26;3.40;99.90
48535;DHT22;34323;52.022;5.686;2022-12-18T12:27:03;3.80;99.90
48535;DHT22;34323;52.022;5.686;2022-12-18T12:32:45;4.00;99.90
48535;DHT22;34323;52.022;5.686;2022-12-18T12:38:11;4.10;99.90
48535;DHT22;34323;52.022;5.686;2022-12-18T12:40:44;4.30;99.90
48535;DHT22;34323;52.022;5.686;2022-12-18T12:46:06;5.00;99.90
48535;DHT22;34323;52.022;5.686;2022-12-18T12:48:52;5.00;99.90
48535;DHT22;34323;52.022;5.686;2022-12-18T12:51:26;5.00;99.90
48535;DHT22;34323;52.022;5.686;2022-12-18T12:53:54;4.90;99.90
48535;DHT22;34323;52.022;5.686;2022-12-18T12:56:22;4.80;99.90
48535;DHT22;34323;52.022;5.686;2022-12-18T12:59:22;4.70;99.90
48535;DHT22;34323;52.022;5.686;2022-12-18T13:01:55;4.80;99.90
48535;DHT22;34323;52.022;5.686;2022-12-18T13:04:56;5.10;99.90
48535;DHT22;34323;52.022;5.686;2022-12-18T13:07:35;5.10;99.90
48535;DHT22;34323;52.022;5.686;2022-12-18T13:10:13;5.30;99.90
48535;DHT22;34323;52.022;5.686;2022-12-18T13:12:59;5.10;99.90
48535;DHT22;34323;52.022;5.686;2022-12-18T13:15:42;4.70;99.90
48535;DHT22;34323;52.022;5.686;2022-12-18T13:20:47;4.60;99.90
48535;DHT22;34323;52.022;5.686;2022-12-18T13:25:45;4.60;99.90
48535;DHT22;34323;52.022;5.686;2022-12-18T13:28:16;4.70;99.90
48535;DHT22;34323;52.022;5.686;2022-12-18T13:30:47;4.70;99.90
48535;DHT22;34323;52.022;5.686;2022-12-18T13:38:25;5.30;99.90
48535;DHT22;34323;52.022;5.686;2022-12-18T13:41:02;5.00;99.90
48535;DHT22;34323;52.022;5.686;2022-12-18T13:43:33;4.90;99.90
48535;DHT22;34323;52.022;5.686;2022-12-18T13:46:02;4.80;99.90
48535;DHT22;34323;52.022;5.686;2022-12-18T13:48:32;4.80;99.90
48535;DHT22;34323;52.022;5.686;2022-12-18T13:51:01;4.60;99.90
48535;DHT22;34323;52.022;5.686;2022-12-18T13:53:52;4.80;99.90
48535;DHT22;34323;52.022;5.686;2022-12-18T13:56:26;5.00;99.90
48535;DHT22;34323;52.022;5.686;2022-12-18T13:59:18;4.80;99.90
48535;DHT22;34323;52.022;5.686;2022-12-18T14:01:58;4.70;99.90
48535;DHT22;34323;52.022;5.686;2022-12-18T14:04:32;4.70;99.90
48535;DHT22;34323;52.022;5.686;2022-12-18T14:09:36;4.50;99.90
48535;DHT22;34323;52.022;5.686;2022-12-18T14:12:03;4.40;99.90
48535;DHT22;34323;52.022;5.686;2022-12-18T14:14:49;4.50;99.90
48535;DHT22;34323;52.022;5.686;2022-12-18T14:17:16;4.70;99.90
48535;DHT22;34323;52.022;5.686;2022-12-18T14:19:44;4.90;99.90
48535;DHT22;34323;52.022;5.686;2022-12-18T14:22:21;5.00;99.90
48535;DHT22;34323;52.022;5.686;2022-12-18T14:27:46;4.60;99.90
48535;DHT22;34323;52.022;5.686;2022-12-18T14:30:26;4.80;99.90
48535;DHT22;34323;52.022;5.686;2022-12-18T14:33:09;4.90;99.90
48535;DHT22;34323;52.022;5.686;2022-12-18T14:35:35;4.70;99.90
48535;DHT22;34323;52.022;5.686;2022-12-18T14:38:14;4.60;99.90
48535;DHT22;34323;52.022;5.686;2022-12-18T14:40:43;4.60;99.90
48535;DHT22;34323;52.022;5.686;2022-12-18T14:43:10;4.50;99.90
48535;DHT22;34323;52.022;5.686;2022-12-18T14:45:39;4.50;99.90
48535;DHT22;34323;52.022;5.686;2022-12-18T14:50:57;4.20;99.90
48535;DHT22;34323;52.022;5.686;2022-12-18T14:53:34;4.20;99.90
48535;DHT22;34323;52.022;5.686;2022-12-18T14:56:00;4.20;99.90
48535;DHT22;34323;52.022;5.686;2022-12-18T14:58:26;3.90;99.90
48535;DHT22;34323;52.022;5.686;2022-12-18T15:00:52;3.90;99.90
48535;DHT22;34323;52.022;5.686;2022-12-18T15:03:19;4.30;99.90
48535;DHT22;34323;52.022;5.686;2022-12-18T15:05:45;4.70;99.90
48535;DHT22;34323;52.022;5.686;2022-12-18T15:08:29;4.90;99.90
48535;DHT22;34323;52.022;5.686;2022-12-18T15:10:55;4.70;99.90
48535;DHT22;34323;52.022;5.686;2022-12-18T15:13:23;4.70;99.90
48535;DHT22;34323;52.022;5.686;2022-12-18T15:15:51;4.40;99.90
48535;DHT22;34323;52.022;5.686;2022-12-18T15:18:32;4.60;99.90
48535;DHT22;34323;52.022;5.686;2022-12-18T15:21:08;4.80;99.90
48535;DHT22;34323;52.022;5.686;2022-12-18T15:26:13;4.60;99.90
48535;DHT22;34323;52.022;5.686;2022-12-18T15:28:56;4.70;99.90
48535;DHT22;34323;52.022;5.686;2022-12-18T15:31:30;4.60;99.90
48535;DHT22;34323;52.022;5.686;2022-12-18T15:36:24;4.80;99.90
48535;DHT22;34323;52.022;5.686;2022-12-18T15:38:50;5.00;99.90
48535;DHT22;34323;52.022;5.686;2022-12-18T15:41:21;5.10;99.90
48535;DHT22;34323;52.022;5.686;2022-12-18T15:43:48;5.20;99.90
48535;DHT22;34323;52.022;5.686;2022-12-18T15:46:23;5.40;99.90
48535;DHT22;34323;52.022;5.686;2022-12-18T15:48:50;5.40;99.90
48535;DHT22;34323;52.022;5.686;2022-12-18T15:51:24;5.40;99.90
48535;DHT22;34323;52.022;5.686;2022-12-18T15:53:53;5.30;99.90
48535;DHT22;34323;52.022;5.686;2022-12-18T15:56:20;5.30;99.90
48535;DHT22;34323;52.022;5.686;2022-12-18T15:59:09;5.20;99.90
48535;DHT22;34323;52.022;5.686;2022-12-18T16:01:36;5.40;99.90
48535;DHT22;34323;52.022;5.686;2022-12-18T16:04:01;5.50;99.90
48535;DHT22;34323;52.022;5.686;2022-12-18T16:06:27;5.50;99.90
48535;DHT22;34323;52.022;5.686;2022-12-18T16:08:52;5.60;99.90
48535;DHT22;34323;52.022;5.686;2022-12-18T16:14:28;5.50;99.90
48535;DHT22;34323;52.022;5.686;2022-12-18T16:16:59;5.30;99.90
48535;DHT22;34323;52.022;5.686;2022-12-18T16:19:25;5.40;99.90
48535;DHT22;34323;52.022;5.686;2022-12-18T16:21:52;5.30;99.90
48535;DHT22;34323;52.022;5.686;2022-12-18T16:24:25;5.20;99.90
48535;DHT22;34323;52.022;5.686;2022-12-18T16:26:52;5.20;99.90
48535;DHT22;34323;52.022;5.686;2022-12-18T16:29:19;5.20;99.90
48535;DHT22;34323;52.022;5.686;2022-12-18T16:31:44;5.20;99.90
48535;DHT22;34323;52.022;5.686;2022-12-18T16:34:18;4.90;99.90
48535;DHT22;34323;52.022;5.686;2022-12-18T16:36:46;4.80;99.90
48535;DHT22;34323;52.022;5.686;2022-12-18T16:39:12;4.90;99.90
48535;DHT22;34323;52.022;5.686;2022-12-18T16:41:37;4.80;99.90
48535;DHT22;34323;52.022;5.686;2022-12-18T16:44:03;4.90;99.90
48535;DHT22;34323;52.022;5.686;2022-12-18T16:46:29;4.80;99.90
48535;DHT22;34323;52.022;5.686;2022-12-18T16:48:57;4.70;99.90
48535;DHT22;34323;52.022;5.686;2022-12-18T16:51:22;4.60;99.90
48535;DHT22;34323;52.022;5.686;2022-12-18T16:53:48;4.30;99.90
48535;DHT22;34323;52.022;5.686;2022-12-18T16:56:13;4.40;99.90
48535;DHT22;34323;52.022;5.686;2022-12-18T16:58:39;4.50;99.90
48535;DHT22;34323;52.022;5.686;2022-12-18T17:01:11;4.60;99.90
48535;DHT22;34323;52.022;5.686;2022-12-18T17:03:37;4.40;99.90
48535;DHT22;34323;52.022;5.686;2022-12-18T17:06:06;4.30;99.90
48535;DHT22;34323;52.022;5.686;2022-12-18T17:08:32;3.90;99.90
48535;DHT22;34323;52.022;5.686;2022-12-18T17:11:07;4.10;99.90
48535;DHT22;34323;52.022;5.686;2022-12-18T17:13:33;4.20;99.90
48535;DHT22;34323;52.022;5.686;2022-12-18T17:16:06;4.40;99.90
48535;DHT22;34323;52.022;5.686;2022-12-18T17:18:33;4.40;99.90
48535;DHT22;34323;52.022;5.686;2022-12-18T17:21:03;4.60;99.90
48535;DHT22;34323;52.022;5.686;2022-12-18T17:23:29;5.00;99.90
48535;DHT22;34323;52.022;5.686;2022-12-18T17:25:58;5.30;99.90
48535;DHT22;34323;52.022;5.686;2022-12-18T17:28:25;5.30;99.90
48535;DHT22;34323;52.022;5.686;2022-12-18T17:30:52;5.10;99.90
48535;DHT22;34323;52.022;5.686;2022-12-18T17:33:18;4.50;99.90
48535;DHT22;34323;52.022;5.686;2022-12-18T17:35:44;4.20;99.90
48535;DHT22;34323;52.022;5.686;2022-12-18T17:38:09;4.30;99.90
48535;DHT22;34323;52.022;5.686;2022-12-18T17:40:35;4.50;99.90
48535;DHT22;34323;52.022;5.686;2022-12-18T17:43:01;4.60;99.90